Herzliyya, Israel
Current Conditions -  °F | °C
As of 11:50 AM on Saturday 25 Oct 2014 (Local Time) from LLSD Reporting Station
Clear Clear  
Wind Chill: 79°   Ceiling: Unl
Heat Index: 79°   Visibility: 6mi
Dew Point: 55°   Wind: 5mph
Humidity: 44%   Direction: 270°W
Pressure: 29.94"   Gusts: NA
Location:  32.19°N, 34.81°E
Report Text: LLSD 250850Z 27004KT CAVOK 26/13 Q1014
Loading
Personal Weather Stations






























Interactive Weather Map
Tropical Storm Tracking
New forecast layout! Learn more

10-Day Weather Forecast

Advertisements
Track Severe Weather on mobile